createdAt,value
2023-01-24T00:01:19.302Z,7.70
2023-01-24T00:03:47.521Z,7.90
2023-01-24T00:06:15.510Z,7.70
2023-01-24T00:08:43.489Z,7.90
2023-01-24T00:11:13.276Z,7.00
2023-01-24T00:13:41.055Z,8.03
2023-01-24T00:16:30.017Z,7.30
2023-01-24T00:18:57.199Z,8.07
2023-01-24T00:21:25.788Z,7.50
2023-01-24T00:23:56.546Z,8.23
2023-01-24T00:26:25.838Z,7.17
2023-01-24T00:28:53.395Z,7.23
2023-01-24T00:31:20.839Z,7.80
2023-01-24T00:33:48.494Z,7.23
2023-01-24T00:36:15.755Z,6.87
2023-01-24T00:38:43.028Z,8.33
2023-01-24T00:41:10.405Z,6.63
2023-01-24T00:43:37.605Z,6.97
2023-01-24T00:46:10.328Z,7.47
2023-01-24T00:48:38.531Z,7.50
2023-01-24T00:51:06.488Z,8.10
2023-01-24T00:53:34.144Z,6.30
2023-01-24T00:56:01.451Z,6.73
2023-01-24T00:58:28.673Z,7.30
2023-01-24T01:00:57.563Z,6.73
2023-01-24T01:03:24.840Z,6.50
2023-01-24T01:06:08.814Z,6.97
2023-01-24T01:08:36.023Z,6.40
2023-01-24T01:11:03.552Z,8.47
2023-01-24T01:13:31.419Z,10.20
2023-01-24T01:16:04.864Z,7.77
2023-01-24T01:18:33.089Z,8.47
2023-01-24T01:21:00.533Z,8.53
2023-01-24T01:23:28.936Z,9.67
2023-01-24T01:26:01.747Z,7.57
2023-01-24T01:28:29.885Z,8.20
2023-01-24T01:30:57.309Z,8.13
2023-01-24T01:33:26.028Z,11.40
2023-01-24T01:35:53.369Z,11.87
2023-01-24T01:38:21.605Z,9.27
2023-01-24T01:40:48.751Z,11.20
2023-01-24T01:43:20.780Z,10.67
2023-01-24T01:45:53.566Z,10.17
2023-01-24T01:48:41.225Z,9.20
2023-01-24T01:51:28.271Z,9.00
2023-01-24T01:54:22.160Z,8.37
2023-01-24T01:56:52.784Z,9.53
2023-01-24T01:59:27.102Z,9.80
2023-01-24T02:01:56.518Z,9.17
2023-01-24T02:04:34.431Z,9.03
2023-01-24T02:07:42.775Z,9.87
2023-01-24T02:10:11.014Z,7.93
2023-01-24T02:12:45.494Z,8.33
2023-01-24T02:15:40.369Z,8.43
2023-01-24T02:18:10.433Z,9.30
2023-01-24T02:20:44.791Z,10.53
2023-01-24T02:23:52.211Z,10.33
2023-01-24T02:26:24.914Z,10.77
2023-01-24T02:29:05.036Z,9.47
2023-01-24T02:32:07.672Z,11.13
2023-01-24T02:34:35.227Z,11.40
2023-01-24T02:37:08.741Z,8.83
2023-01-24T02:39:54.806Z,9.37
2023-01-24T02:42:27.519Z,9.03
2023-01-24T02:45:12.113Z,8.60
2023-01-24T02:47:46.144Z,9.47
2023-01-24T02:50:13.349Z,8.57
2023-01-24T02:52:59.082Z,7.63
2023-01-24T02:55:26.621Z,11.00
2023-01-24T02:58:09.447Z,8.57
2023-01-24T03:00:43.391Z,8.73
2023-01-24T03:03:14.188Z,11.97
2023-01-24T03:05:47.638Z,9.60
2023-01-24T03:08:17.483Z,9.23
2023-01-24T03:10:47.667Z,11.27
2023-01-24T03:13:35.350Z,8.60
2023-01-24T03:16:22.540Z,8.70
2023-01-24T03:19:08.657Z,10.47
2023-01-24T03:21:55.278Z,10.00
2023-01-24T03:24:41.358Z,9.80
2023-01-24T03:27:28.742Z,10.33
2023-01-24T03:30:15.384Z,8.43
2023-01-24T03:33:01.559Z,9.80
2023-01-24T03:35:29.437Z,10.13
2023-01-24T03:38:14.932Z,9.63
2023-01-24T03:40:42.229Z,9.70
2023-01-24T03:43:09.504Z,11.03
2023-01-24T03:45:40.711Z,9.47
2023-01-24T03:48:15.245Z,14.23
2023-01-24T03:51:02.804Z,12.03
2023-01-24T03:53:35.497Z,12.20
2023-01-24T03:56:04.740Z,11.57
2023-01-24T03:58:40.562Z,11.67
2023-01-24T04:01:10.557Z,13.43
2023-01-24T04:03:55.512Z,13.13
2023-01-24T04:06:23.582Z,13.07
2023-01-24T04:08:51.915Z,12.63
2023-01-24T04:11:20.832Z,11.47
2023-01-24T04:13:52.811Z,12.40
2023-01-24T04:16:20.484Z,11.73
2023-01-24T04:19:20.235Z,12.43
2023-01-24T04:21:47.634Z,11.23
2023-01-24T04:24:14.876Z,11.17
2023-01-24T04:26:44.851Z,11.10
2023-01-24T04:29:18.176Z,12.83
2023-01-24T04:31:48.304Z,13.00
2023-01-24T04:34:34.088Z,12.33
2023-01-24T04:37:01.556Z,12.53
2023-01-24T04:39:29.774Z,11.43
2023-01-24T04:42:11.636Z,11.07
2023-01-24T04:44:40.561Z,12.37
2023-01-24T04:47:10.230Z,13.93
2023-01-24T04:49:37.513Z,12.23
2023-01-24T04:52:06.308Z,12.43
2023-01-24T04:54:46.111Z,11.63
2023-01-24T04:57:13.422Z,11.23
2023-01-24T04:59:42.949Z,12.37
2023-01-24T05:02:11.947Z,14.63
2023-01-24T05:04:43.368Z,11.83
2023-01-24T05:07:11.527Z,13.90
2023-01-24T05:09:40.171Z,11.27
2023-01-24T05:12:09.911Z,14.47
2023-01-24T05:14:37.191Z,12.03
2023-01-24T05:17:04.924Z,12.57
2023-01-24T05:19:34.935Z,10.77
2023-01-24T05:22:02.192Z,10.97
2023-01-24T05:24:35.222Z,13.37
2023-01-24T05:27:02.630Z,16.47
2023-01-24T05:29:31.919Z,12.57
2023-01-24T05:32:03.380Z,14.03
2023-01-24T05:34:30.695Z,13.00
2023-01-24T05:36:58.209Z,13.03
2023-01-24T05:39:26.178Z,16.40
2023-01-24T05:41:54.097Z,10.70
2023-01-24T05:44:23.988Z,14.70
2023-01-24T05:46:51.414Z,14.23
2023-01-24T05:49:27.436Z,10.37
2023-01-24T05:51:55.853Z,11.53
2023-01-24T05:54:40.432Z,10.60
2023-01-24T05:57:20.101Z,12.47
2023-01-24T06:00:10.016Z,11.63
2023-01-24T06:02:41.886Z,12.53
2023-01-24T06:05:11.166Z,11.43
2023-01-24T06:07:38.547Z,14.43
2023-01-24T06:10:06.327Z,19.90
2023-01-24T06:12:45.543Z,14.50
2023-01-24T06:15:13.941Z,12.90
2023-01-24T06:17:41.499Z,12.10
2023-01-24T06:20:12.534Z,11.43
2023-01-24T06:22:53.574Z,12.27
2023-01-24T06:25:27.226Z,13.47
2023-01-24T06:27:55.035Z,11.53
2023-01-24T06:30:22.879Z,13.43
2023-01-24T06:33:23.616Z,12.57
2023-01-24T06:36:05.480Z,15.87
2023-01-24T06:38:33.037Z,13.47
2023-01-24T06:41:02.973Z,12.73
2023-01-24T06:43:30.546Z,12.97
2023-01-24T06:45:58.047Z,12.77
2023-01-24T06:48:25.271Z,13.53
2023-01-24T06:50:52.569Z,12.53
2023-01-24T06:53:20.261Z,15.83
2023-01-24T06:55:47.612Z,61.37
2023-01-24T06:58:15.007Z,13.07
2023-01-24T07:00:42.196Z,12.63
2023-01-24T07:03:09.805Z,13.77
2023-01-24T07:05:40.314Z,17.47
2023-01-24T07:08:08.228Z,13.63
2023-01-24T07:10:35.809Z,13.63
2023-01-24T07:13:03.303Z,13.27
2023-01-24T07:15:30.625Z,13.13
2023-01-24T07:17:58.282Z,17.90
2023-01-24T07:20:25.705Z,13.97
2023-01-24T07:22:54.211Z,13.73
2023-01-24T07:25:22.571Z,15.10
2023-01-24T07:27:50.529Z,15.90
2023-01-24T07:30:18.090Z,14.40
2023-01-24T07:32:45.443Z,15.60
2023-01-24T07:35:12.984Z,16.67
2023-01-24T07:37:40.290Z,14.27
2023-01-24T07:40:08.127Z,14.80
2023-01-24T07:42:35.796Z,15.03
2023-01-24T07:45:05.604Z,14.83
2023-01-24T07:47:32.882Z,14.80
2023-01-24T07:50:00.262Z,16.67
2023-01-24T07:52:27.548Z,14.13
2023-01-24T07:54:54.619Z,13.10
2023-01-24T07:57:21.865Z,14.10
2023-01-24T07:59:48.955Z,16.50
2023-01-24T08:02:16.116Z,15.70
2023-01-24T08:04:43.299Z,14.63
2023-01-24T08:07:19.337Z,14.17
2023-01-24T08:09:48.035Z,13.43
2023-01-24T08:12:16.242Z,16.10
2023-01-24T08:14:43.422Z,17.30
2023-01-24T08:17:11.476Z,14.73
2023-01-24T08:19:55.389Z,13.80
2023-01-24T08:22:23.825Z,12.73
2023-01-24T08:24:51.041Z,14.03
2023-01-24T08:27:18.142Z,14.67
2023-01-24T08:29:45.274Z,15.63
2023-01-24T08:32:15.353Z,16.00
2023-01-24T08:34:42.540Z,13.57
2023-01-24T08:37:09.709Z,13.57
2023-01-24T08:39:36.868Z,13.43
2023-01-24T08:42:04.134Z,13.37
2023-01-24T08:44:31.267Z,14.57
2023-01-24T08:46:58.660Z,13.20
2023-01-24T08:49:25.960Z,13.13
2023-01-24T08:51:59.780Z,14.90
2023-01-24T08:54:33.537Z,13.57
2023-01-24T08:57:00.658Z,20.63
2023-01-24T08:59:27.827Z,16.50
2023-01-24T09:01:54.975Z,13.90
2023-01-24T09:04:22.351Z,12.60
2023-01-24T09:06:52.031Z,15.67
2023-01-24T09:09:19.280Z,12.83
2023-01-24T09:11:46.722Z,13.13
2023-01-24T09:14:13.807Z,14.63
2023-01-24T09:16:41.017Z,14.90
2023-01-24T09:19:09.143Z,13.40
2023-01-24T09:21:36.404Z,14.80
2023-01-24T09:24:03.875Z,15.00
2023-01-24T09:26:31.127Z,14.40
2023-01-24T09:28:58.263Z,15.27
2023-01-24T09:31:25.563Z,15.30
2023-01-24T09:33:59.385Z,14.83
2023-01-24T09:36:28.839Z,15.70
2023-01-24T09:39:05.380Z,14.83
2023-01-24T09:42:10.492Z,14.17
2023-01-24T09:44:43.961Z,14.63
2023-01-24T09:47:26.327Z,13.20
2023-01-24T09:50:00.014Z,13.30
2023-01-24T09:52:41.630Z,13.37
2023-01-24T09:55:28.170Z,15.27
2023-01-24T09:58:29.912Z,14.50
2023-01-24T10:01:00.444Z,14.63
2023-01-24T10:03:28.528Z,13.73
2023-01-24T10:05:59.910Z,13.67
2023-01-24T10:08:55.819Z,14.70
2023-01-24T10:11:40.828Z,13.70
2023-01-24T10:14:32.842Z,20.40
2023-01-24T10:17:20.548Z,28.10
2023-01-24T10:20:07.038Z,14.00
2023-01-24T10:23:22.372Z,13.20
2023-01-24T10:25:56.323Z,18.93
2023-01-24T10:28:36.507Z,17.43
2023-01-24T10:31:18.090Z,14.87
2023-01-24T10:33:53.389Z,18.03
2023-01-24T10:36:44.099Z,14.13
2023-01-24T10:39:12.650Z,15.37
2023-01-24T10:41:40.534Z,13.70
2023-01-24T10:44:28.370Z,15.60
2023-01-24T10:47:42.014Z,13.57
2023-01-24T10:50:13.548Z,12.73
2023-01-24T10:52:40.721Z,15.87
2023-01-24T10:55:39.370Z,14.73
2023-01-24T10:58:28.314Z,14.37
2023-01-24T11:01:20.309Z,14.97
2023-01-24T11:03:50.997Z,14.00
2023-01-24T11:06:38.755Z,19.60
2023-01-24T11:09:13.907Z,15.63
2023-01-24T11:11:56.710Z,16.93
2023-01-24T11:14:27.974Z,13.60
2023-01-24T11:16:59.185Z,17.77
2023-01-24T11:19:39.484Z,12.33
2023-01-24T11:22:24.641Z,13.30
2023-01-24T11:24:58.853Z,13.00
2023-01-24T11:27:27.687Z,13.93
2023-01-24T11:30:16.607Z,14.73
2023-01-24T11:33:14.603Z,13.23
2023-01-24T11:35:49.668Z,13.20
2023-01-24T11:38:25.308Z,15.83
2023-01-24T11:41:09.983Z,14.50
2023-01-24T11:44:24.075Z,15.57
2023-01-24T11:47:21.393Z,14.80
2023-01-24T11:50:07.355Z,14.60
2023-01-24T11:53:09.311Z,14.33
2023-01-24T11:56:13.522Z,13.90
2023-01-24T11:59:17.658Z,13.63
2023-01-24T12:02:11.045Z,14.90
2023-01-24T12:05:16.531Z,13.20
2023-01-24T12:08:23.340Z,18.57
2023-01-24T12:11:29.638Z,16.33
2023-01-24T12:14:44.616Z,12.73
2023-01-24T12:17:33.390Z,15.20
2023-01-24T12:20:59.958Z,13.80
2023-01-24T12:23:48.858Z,16.20
2023-01-24T12:26:23.909Z,16.33
2023-01-24T12:29:15.137Z,14.53
2023-01-24T12:32:13.192Z,13.83
2023-01-24T12:35:36.726Z,14.50
2023-01-24T12:38:12.487Z,15.53
2023-01-24T12:40:48.000Z,14.40
2023-01-24T12:43:57.483Z,18.73
2023-01-24T12:46:55.851Z,13.73
2023-01-24T12:49:53.607Z,14.60
2023-01-24T12:52:40.303Z,12.80
2023-01-24T12:55:16.631Z,16.80
2023-01-24T12:57:54.988Z,15.87
2023-01-24T13:00:25.548Z,12.83
2023-01-24T13:03:38.289Z,13.27
2023-01-24T13:06:28.027Z,13.87
2023-01-24T13:09:30.403Z,11.53
2023-01-24T13:12:00.326Z,18.10
2023-01-24T13:14:55.066Z,12.13
2023-01-24T13:17:44.144Z,13.47
2023-01-24T13:20:30.325Z,11.93
2023-01-24T13:23:38.495Z,12.37
2023-01-24T13:26:52.101Z,13.77
2023-01-24T13:30:15.457Z,12.30
2023-01-24T13:32:44.571Z,16.43
2023-01-24T13:35:18.866Z,14.70
2023-01-24T13:38:25.077Z,13.63
2023-01-24T13:41:06.775Z,13.97
2023-01-24T13:43:37.427Z,15.53
2023-01-24T13:46:05.418Z,13.63
2023-01-24T13:48:42.535Z,15.33
2023-01-24T13:51:22.125Z,14.57
2023-01-24T13:54:07.251Z,14.73
2023-01-24T13:57:19.694Z,17.40
2023-01-24T13:59:59.603Z,14.97
2023-01-24T14:02:57.347Z,13.40
2023-01-24T14:05:31.349Z,14.00
2023-01-24T14:08:25.438Z,13.90
2023-01-24T14:11:16.968Z,13.70
2023-01-24T14:13:56.460Z,14.47
2023-01-24T14:16:34.011Z,16.37
2023-01-24T14:19:16.520Z,14.93
2023-01-24T14:22:09.383Z,15.07
2023-01-24T14:24:55.398Z,13.93
2023-01-24T14:27:37.887Z,14.77
2023-01-24T14:30:15.544Z,13.67
2023-01-24T14:32:53.037Z,13.30
2023-01-24T14:35:28.967Z,19.60
2023-01-24T14:38:16.973Z,16.17
2023-01-24T14:40:53.810Z,16.17
2023-01-24T14:43:25.318Z,16.30
2023-01-24T14:45:53.025Z,17.07
2023-01-24T14:48:26.025Z,20.40
2023-01-24T14:51:08.126Z,18.50
2023-01-24T14:53:36.161Z,14.10
2023-01-24T14:56:13.283Z,18.03
2023-01-24T14:58:41.090Z,14.57
2023-01-24T15:01:32.226Z,16.33
2023-01-24T15:04:00.631Z,16.20
2023-01-24T15:06:29.509Z,15.13
2023-01-24T15:09:00.574Z,14.83
2023-01-24T15:11:38.945Z,38.03
2023-01-24T15:14:19.518Z,14.30
2023-01-24T15:16:55.373Z,14.30
2023-01-24T15:19:26.321Z,16.13
2023-01-24T15:21:55.707Z,13.90
2023-01-24T15:24:30.261Z,16.90
2023-01-24T15:27:00.130Z,20.07
2023-01-24T15:29:50.641Z,14.17
2023-01-24T15:32:23.837Z,14.20
2023-01-24T15:34:51.491Z,14.83
2023-01-24T15:37:18.843Z,14.10
2023-01-24T15:39:46.265Z,14.53
2023-01-24T15:42:37.838Z,15.77
2023-01-24T15:45:06.030Z,17.03
2023-01-24T15:47:45.409Z,16.43
2023-01-24T15:50:37.762Z,13.77
2023-01-24T15:53:31.860Z,16.07
2023-01-24T15:56:05.958Z,15.17
2023-01-24T15:58:35.239Z,13.80
2023-01-24T16:01:04.368Z,16.80
2023-01-24T16:03:32.204Z,17.50
2023-01-24T16:06:00.034Z,16.80
2023-01-24T16:08:28.979Z,13.97
2023-01-24T16:10:58.424Z,15.67
2023-01-24T16:13:32.372Z,16.80
2023-01-24T16:16:04.423Z,17.30
2023-01-24T16:18:31.931Z,13.53
2023-01-24T16:21:00.369Z,14.90
2023-01-24T16:23:27.884Z,14.87
2023-01-24T16:25:57.587Z,15.87
2023-01-24T16:28:28.630Z,13.80
2023-01-24T16:31:03.218Z,14.87
2023-01-24T16:33:30.671Z,15.70
2023-01-24T16:35:58.863Z,15.67
2023-01-24T16:38:26.446Z,16.20
2023-01-24T16:40:54.077Z,15.03
2023-01-24T16:43:23.580Z,14.80
2023-01-24T16:45:52.730Z,16.70
2023-01-24T16:48:20.240Z,14.67
2023-01-24T16:50:47.728Z,17.00
2023-01-24T16:53:16.013Z,16.67
2023-01-24T16:55:43.786Z,16.20
2023-01-24T16:58:13.568Z,14.63
2023-01-24T17:00:41.093Z,15.13
2023-01-24T17:03:08.694Z,15.90
2023-01-24T17:05:40.193Z,17.07
2023-01-24T17:08:10.957Z,16.47
2023-01-24T17:10:38.658Z,17.83
2023-01-24T17:13:07.271Z,16.57
2023-01-24T17:15:39.047Z,19.23
2023-01-24T17:18:07.234Z,16.37
2023-01-24T17:20:35.720Z,16.27
2023-01-24T17:23:03.056Z,17.17
2023-01-24T17:25:31.917Z,17.30
2023-01-24T17:27:59.473Z,15.40
2023-01-24T17:30:27.271Z,17.37
2023-01-24T17:32:54.612Z,15.90
2023-01-24T17:35:21.886Z,17.00
2023-01-24T17:37:49.446Z,15.67
2023-01-24T17:40:17.193Z,18.60
2023-01-24T17:42:45.105Z,17.90
2023-01-24T17:45:14.172Z,17.10
2023-01-24T17:47:41.519Z,14.43
2023-01-24T17:50:09.490Z,19.43
2023-01-24T17:52:36.785Z,20.70
2023-01-24T17:55:04.708Z,19.93
2023-01-24T17:57:32.299Z,16.37
2023-01-24T17:59:59.615Z,17.50
2023-01-24T18:02:26.860Z,21.80
2023-01-24T18:04:55.056Z,16.60
2023-01-24T18:07:22.401Z,15.87
2023-01-24T18:09:49.644Z,15.43
2023-01-24T18:12:17.016Z,16.97
2023-01-24T18:14:44.389Z,16.97
2023-01-24T18:17:11.723Z,16.47
2023-01-24T18:19:39.042Z,16.07
2023-01-24T18:22:06.311Z,16.10
2023-01-24T18:24:33.682Z,17.53
2023-01-24T18:27:01.171Z,16.50
2023-01-24T18:29:28.380Z,17.23
2023-01-24T18:31:55.896Z,17.17
2023-01-24T18:34:25.053Z,16.97
2023-01-24T18:36:52.489Z,19.77
2023-01-24T18:39:20.063Z,19.03
2023-01-24T18:41:47.434Z,17.50
2023-01-24T18:44:16.406Z,20.77
2023-01-24T18:46:43.729Z,16.73
2023-01-24T18:49:11.651Z,18.80
2023-01-24T18:51:39.799Z,17.53
2023-01-24T18:54:08.883Z,29.57
2023-01-24T18:56:37.504Z,16.30
2023-01-24T18:59:04.841Z,18.50
2023-01-24T19:01:33.991Z,17.30
2023-01-24T19:04:01.720Z,16.47
2023-01-24T19:06:35.774Z,19.10
2023-01-24T19:09:08.411Z,17.37
2023-01-24T19:11:39.020Z,18.43
2023-01-24T19:14:08.103Z,18.63
2023-01-24T19:16:43.302Z,16.17
2023-01-24T19:19:15.492Z,18.17
2023-01-24T19:21:43.514Z,16.00
2023-01-24T19:24:11.178Z,18.23
2023-01-24T19:26:38.665Z,19.63
2023-01-24T19:29:06.577Z,18.73
2023-01-24T19:31:36.332Z,17.87
2023-01-24T19:34:07.505Z,17.70
2023-01-24T19:36:34.906Z,16.47
2023-01-24T19:39:02.734Z,17.60
2023-01-24T19:41:30.461Z,17.37
2023-01-24T19:44:19.191Z,17.77
2023-01-24T19:46:48.583Z,25.80
2023-01-24T19:49:17.557Z,14.67
2023-01-24T19:51:45.092Z,19.20
2023-01-24T19:54:12.721Z,16.37
2023-01-24T19:56:40.377Z,16.70
2023-01-24T19:59:07.943Z,16.97
2023-01-24T20:01:35.678Z,15.53
2023-01-24T20:04:22.259Z,23.00
2023-01-24T20:06:51.405Z,16.67
2023-01-24T20:09:19.596Z,15.80
2023-01-24T20:11:47.116Z,18.87
2023-01-24T20:14:14.576Z,16.53
2023-01-24T20:16:42.073Z,20.70
2023-01-24T20:19:18.534Z,18.13
2023-01-24T20:21:54.047Z,19.97
2023-01-24T20:24:21.596Z,18.97
2023-01-24T20:26:53.157Z,19.87
2023-01-24T20:29:20.826Z,20.80
2023-01-24T20:31:48.206Z,17.37
2023-01-24T20:34:17.675Z,18.10
2023-01-24T20:36:47.369Z,16.87
2023-01-24T20:39:15.198Z,18.47
2023-01-24T20:41:45.063Z,22.03
2023-01-24T20:44:25.757Z,16.67
2023-01-24T20:46:55.531Z,17.47
2023-01-24T20:49:24.234Z,16.33
2023-01-24T20:51:51.645Z,16.10
2023-01-24T20:54:19.288Z,18.20
2023-01-24T20:56:47.633Z,18.33
2023-01-24T20:59:15.830Z,17.20
2023-01-24T21:01:43.344Z,18.73
2023-01-24T21:04:10.829Z,19.00
2023-01-24T21:06:41.423Z,17.73
2023-01-24T21:09:10.823Z,18.10
2023-01-24T21:11:38.726Z,22.47
2023-01-24T21:14:10.642Z,16.43
2023-01-24T21:16:38.050Z,18.90
2023-01-24T21:19:07.963Z,17.60
2023-01-24T21:21:37.197Z,20.00
2023-01-24T21:24:20.043Z,17.87
2023-01-24T21:26:57.735Z,19.67
2023-01-24T21:29:30.336Z,18.43
2023-01-24T21:32:01.093Z,21.03
2023-01-24T21:34:28.923Z,20.90
2023-01-24T21:36:56.802Z,17.97
2023-01-24T21:39:26.420Z,18.60
2023-01-24T21:41:57.244Z,17.30
2023-01-24T21:44:34.056Z,18.80
2023-01-24T21:47:04.131Z,18.73
2023-01-24T21:49:31.607Z,17.93
2023-01-24T21:52:01.407Z,18.80
2023-01-24T21:54:34.548Z,17.60
2023-01-24T21:57:31.422Z,19.43
2023-01-24T22:00:06.388Z,18.80
2023-01-24T22:02:40.135Z,18.60
2023-01-24T22:05:08.400Z,20.00
2023-01-24T22:07:37.937Z,18.33
2023-01-24T22:10:07.606Z,19.10
2023-01-24T22:12:36.523Z,17.93
2023-01-24T22:15:05.020Z,18.50
2023-01-24T22:17:34.088Z,21.33
2023-01-24T22:20:01.891Z,17.77
2023-01-24T22:22:56.478Z,20.70
2023-01-24T22:25:45.107Z,20.30
2023-01-24T22:28:20.607Z,19.33
2023-01-24T22:30:49.222Z,19.60
2023-01-24T22:33:17.554Z,20.60
2023-01-24T22:35:47.717Z,20.70
2023-01-24T22:38:15.328Z,19.43
2023-01-24T22:40:42.984Z,19.43
2023-01-24T22:43:10.575Z,21.60
2023-01-24T22:45:38.237Z,20.43
2023-01-24T22:48:16.060Z,22.30
2023-01-24T22:50:44.729Z,22.50
2023-01-24T22:53:13.125Z,19.03
2023-01-24T22:55:41.557Z,19.40
2023-01-24T22:58:08.910Z,21.90
2023-01-24T23:00:39.085Z,21.10
2023-01-24T23:03:06.489Z,22.73
2023-01-24T23:05:33.863Z,21.57
2023-01-24T23:08:01.335Z,22.20
2023-01-24T23:10:28.688Z,21.73
2023-01-24T23:13:15.030Z,20.97
2023-01-24T23:16:00.827Z,22.37
2023-01-24T23:18:47.813Z,23.23
2023-01-24T23:21:33.716Z,23.20
2023-01-24T23:24:01.761Z,23.60
2023-01-24T23:26:30.465Z,24.27
2023-01-24T23:29:12.374Z,23.57
2023-01-24T23:31:40.753Z,25.30
2023-01-24T23:34:31.420Z,24.20
2023-01-24T23:36:58.667Z,23.73
2023-01-24T23:39:26.032Z,23.73
2023-01-24T23:41:53.387Z,23.27
2023-01-24T23:44:22.787Z,26.33
2023-01-24T23:46:50.333Z,25.40
2023-01-24T23:49:17.757Z,26.70
2023-01-24T23:51:45.518Z,26.40
2023-01-24T23:54:13.318Z,25.57
2023-01-24T23:56:41.117Z,25.43
2023-01-24T23:59:08.668Z,24.43
